Startpagina
METAR-TAF:

METAR-TAF

Vliegvelden :

Indianapolis, Indiana, Verenigde Staten

Indianapolis International Airport

breedte: 39-43-30N, lengte: 086-16-55W, hoogte: 243 m

Actueel weer

Dit bericht is 40 minuten geleden gemaakt, om 08:54 UTC
Wind 5 kt uit het zuidzuidwesten
Temperatuur -4°C
Vochtigheid 80%
Druk 1021 hPa
Zicht: 16.1 km
Weinig wolken op 3000 ft
Weinig wolken op 25000 ft

METAR: KIND 200854Z 20005KT 10SM FEW030 FEW250 M04/M07 A3015 RMK AO2 SLP218 T10391067 58005

Tijdstip: 04:34 (09:34 UTC)

Verwachting

Dit bericht is 1 uur en het 27 minuten geleden gemaakt, om 08:07 UTC
Verwachting geldig van 20 om 08 UTC tot 21 om 12 UTC
Wind 4 kt uit het zuidzuidwesten
Zicht: 10 km
Onbewolkt
Van 20 om 1500 UTC
Wind 11 kt uit het zuidzuidwesten met uitschieters tot 20 kt
Zicht: 10 km
Onbewolkt

TAF: KIND 200807Z 2008/2112 21004KT P6SM SKC FM201500 20011G20KT P6SM SKC

Waarnemingen en weersverwachtingen van meer dan 4000 vliegvelden (METAR en TAF).

De beschikbare stations zijn de gele en rode punten op de kaart.

Ga met uw muis naar het station om de naam te zien.

Klik dan om waarnemingen en weersverwachtingen te zien.

kaart wijzigen: klik op de groene knoppen met een zwart kruis om in te zoomen, op de groene knop met een streepje om uit te zoomen of op de groene pijlen voor aangrenzende kaarten.


METAR-TAF: